createdAt,value
2023-05-23T00:00:10.600Z,20.00
2023-05-23T00:02:37.187Z,20.00
2023-05-23T00:05:03.786Z,20.00
2023-05-23T00:07:30.299Z,20.00
2023-05-23T00:09:56.803Z,19.90
2023-05-23T00:12:23.330Z,19.90
2023-05-23T00:14:49.873Z,20.00
2023-05-23T00:17:16.414Z,19.90
2023-05-23T00:19:42.946Z,20.00
2023-05-23T00:22:09.482Z,20.00
2023-05-23T00:24:35.992Z,20.00
2023-05-23T00:27:02.523Z,19.90
2023-05-23T00:29:29.080Z,19.90
2023-05-23T00:31:55.680Z,20.00
2023-05-23T00:34:22.197Z,20.00
2023-05-23T00:36:48.717Z,20.00
2023-05-23T00:39:15.240Z,20.00
2023-05-23T00:41:41.766Z,19.90
2023-05-23T00:44:08.299Z,19.90
2023-05-23T00:46:34.876Z,20.00
2023-05-23T00:49:01.428Z,20.00
2023-05-23T00:51:27.950Z,20.00
2023-05-23T00:53:54.463Z,20.00
2023-05-23T00:56:20.972Z,20.00
2023-05-23T00:58:47.484Z,19.90
2023-05-23T01:01:14.054Z,19.90
2023-05-23T01:03:40.745Z,19.90
2023-05-23T01:06:07.394Z,19.90
2023-05-23T01:08:33.918Z,19.90
2023-05-23T01:11:00.453Z,20.00
2023-05-23T01:13:26.973Z,19.90
2023-05-23T01:15:53.532Z,19.90
2023-05-23T01:18:20.101Z,19.90
2023-05-23T01:20:46.633Z,19.90
2023-05-23T01:23:13.186Z,20.00
2023-05-23T01:25:39.914Z,20.00
2023-05-23T01:28:06.619Z,20.00
2023-05-23T01:30:33.148Z,20.00
2023-05-23T01:32:59.713Z,19.90
2023-05-23T01:35:26.260Z,19.90
2023-05-23T01:37:52.778Z,20.00
2023-05-23T01:40:19.297Z,19.90
2023-05-23T01:42:45.816Z,19.90
2023-05-23T01:45:12.334Z,20.00
2023-05-23T01:47:38.864Z,20.00
2023-05-23T01:50:05.400Z,19.90
2023-05-23T01:52:31.935Z,19.90
2023-05-23T01:54:58.440Z,19.90
2023-05-23T01:57:25.098Z,19.90
2023-05-23T01:59:51.660Z,19.90
2023-05-23T02:02:18.223Z,19.90
2023-05-23T02:04:44.758Z,19.90
2023-05-23T02:07:11.284Z,19.90
2023-05-23T02:09:39.423Z,19.90
2023-05-23T02:12:05.936Z,19.90
2023-05-23T02:14:32.472Z,19.90
2023-05-23T02:16:58.998Z,19.90
2023-05-23T02:19:25.610Z,19.90
2023-05-23T02:21:52.215Z,19.90
2023-05-23T02:24:18.726Z,19.90
2023-05-23T02:26:45.243Z,19.90
2023-05-23T02:29:11.755Z,19.90
2023-05-23T02:31:38.317Z,19.90
2023-05-23T02:34:04.880Z,19.90
2023-05-23T02:36:31.389Z,19.90
2023-05-23T02:38:57.910Z,19.90
2023-05-23T02:41:24.420Z,19.90
2023-05-23T02:43:50.922Z,19.80
2023-05-23T02:46:17.517Z,19.90
2023-05-23T02:48:44.058Z,19.90
2023-05-23T02:51:10.604Z,19.90
2023-05-23T02:53:37.129Z,19.90
2023-05-23T02:56:03.696Z,19.80
2023-05-23T02:58:30.244Z,19.80
2023-05-23T03:00:56.756Z,19.80
2023-05-23T03:03:23.373Z,19.80
2023-05-23T03:05:50.087Z,19.90
2023-05-23T03:08:16.684Z,19.90
2023-05-23T03:10:43.324Z,19.90
2023-05-23T03:13:09.969Z,19.90
2023-05-23T03:15:36.626Z,19.90
2023-05-23T03:18:03.324Z,19.90
2023-05-23T03:20:30.013Z,19.80
2023-05-23T03:22:56.681Z,19.70
2023-05-23T03:25:23.419Z,19.70
2023-05-23T03:27:50.051Z,19.80
2023-05-23T03:30:16.695Z,19.80
2023-05-23T03:32:43.413Z,19.80
2023-05-23T03:35:10.085Z,19.80
2023-05-23T03:37:36.750Z,19.70
2023-05-23T03:40:03.427Z,19.70
2023-05-23T03:42:30.071Z,19.70
2023-05-23T03:44:56.712Z,19.70
2023-05-23T03:47:23.377Z,19.70
2023-05-23T03:49:50.058Z,19.70
2023-05-23T03:52:16.690Z,19.80
2023-05-23T03:54:43.345Z,19.80
2023-05-23T03:57:09.972Z,19.80
2023-05-23T03:59:36.606Z,19.70
2023-05-23T04:02:03.272Z,19.70
2023-05-23T04:04:29.997Z,19.60
2023-05-23T04:06:56.677Z,19.50
2023-05-23T04:09:23.318Z,19.70
2023-05-23T04:11:50.016Z,19.70
2023-05-23T04:14:16.721Z,19.70
2023-05-23T04:16:43.441Z,19.70
2023-05-23T04:19:10.156Z,19.70
2023-05-23T04:21:36.750Z,19.70
2023-05-23T04:24:03.295Z,19.70
2023-05-23T04:26:29.892Z,19.70
2023-05-23T04:28:56.428Z,19.70
2023-05-23T04:31:23.020Z,19.70
2023-05-23T04:33:49.525Z,19.70
2023-05-23T04:36:16.027Z,19.60
2023-05-23T04:38:42.534Z,19.50
2023-05-23T04:41:09.090Z,19.50
2023-05-23T04:43:35.624Z,19.50
2023-05-23T04:46:02.148Z,19.60
2023-05-23T04:48:28.657Z,19.50
2023-05-23T04:50:55.320Z,19.50
2023-05-23T04:53:21.846Z,19.60
2023-05-23T04:55:48.373Z,19.60
2023-05-23T04:58:15.078Z,19.50
2023-05-23T05:00:41.907Z,19.60
2023-05-23T05:03:08.718Z,19.60
2023-05-23T05:05:35.301Z,19.70
2023-05-23T05:08:01.820Z,19.70
2023-05-23T05:10:28.346Z,19.50
2023-05-23T05:12:54.894Z,19.50
2023-05-23T05:15:21.432Z,19.50
2023-05-23T05:17:49.700Z,19.60
2023-05-23T05:20:16.574Z,19.50
2023-05-23T05:22:43.181Z,19.50
2023-05-23T05:25:09.722Z,19.50
2023-05-23T05:27:36.253Z,19.50
2023-05-23T05:30:02.938Z,19.50
2023-05-23T05:32:29.477Z,19.50
2023-05-23T05:34:56.032Z,19.50
2023-05-23T05:37:22.558Z,19.50
2023-05-23T05:39:49.081Z,19.40
2023-05-23T05:42:15.598Z,19.40
2023-05-23T05:44:42.106Z,19.40
2023-05-23T05:47:08.691Z,19.40
2023-05-23T05:49:35.237Z,19.40
2023-05-23T05:52:01.739Z,19.40
2023-05-23T05:54:28.247Z,19.50
2023-05-23T05:56:54.767Z,19.40
2023-05-23T05:59:21.289Z,19.40
2023-05-23T06:01:47.789Z,19.40
2023-05-23T06:04:14.416Z,19.40
2023-05-23T06:06:40.981Z,19.40
2023-05-23T06:09:07.518Z,19.30
2023-05-23T06:11:35.138Z,19.40
2023-05-23T06:14:01.835Z,19.40
2023-05-23T06:16:28.509Z,19.40
2023-05-23T06:18:55.147Z,19.40
2023-05-23T06:21:21.704Z,19.30
2023-05-23T06:23:48.252Z,19.30
2023-05-23T06:26:14.770Z,19.30
2023-05-23T06:28:41.295Z,19.50
2023-05-23T06:31:07.809Z,19.50
2023-05-23T06:33:34.325Z,19.50
2023-05-23T06:36:00.850Z,19.50
2023-05-23T06:38:27.361Z,19.50
2023-05-23T06:40:53.902Z,19.50
2023-05-23T06:43:20.464Z,19.50
2023-05-23T06:45:47.005Z,19.40
2023-05-23T06:48:13.560Z,19.40
2023-05-23T06:50:40.278Z,19.50
2023-05-23T06:53:06.965Z,19.50
2023-05-23T06:55:33.512Z,19.40
2023-05-23T06:58:00.039Z,19.40
2023-05-23T07:00:26.536Z,19.40
2023-05-23T07:02:53.085Z,19.40
2023-05-23T07:05:19.746Z,19.50
2023-05-23T07:07:46.295Z,19.50
2023-05-23T07:10:12.824Z,19.40
2023-05-23T07:12:39.365Z,19.50
2023-05-23T07:15:05.895Z,19.40
2023-05-23T07:17:32.443Z,19.40
2023-05-23T07:19:58.967Z,19.30
2023-05-23T07:22:27.707Z,19.30
2023-05-23T07:24:54.231Z,19.40
2023-05-23T07:27:20.879Z,19.40
2023-05-23T07:29:47.439Z,19.40
2023-05-23T07:32:13.966Z,19.40
2023-05-23T07:34:40.536Z,19.40
2023-05-23T07:37:07.079Z,19.50
2023-05-23T07:39:33.834Z,19.40
2023-05-23T07:42:00.357Z,19.30
2023-05-23T07:44:26.872Z,19.20
2023-05-23T07:46:53.603Z,19.20
2023-05-23T07:49:20.253Z,19.20
2023-05-23T07:51:46.764Z,19.20
2023-05-23T07:54:15.701Z,19.20
2023-05-23T07:56:45.661Z,19.30
2023-05-23T07:59:12.190Z,19.30
2023-05-23T08:01:38.751Z,19.30
2023-05-23T08:04:05.318Z,19.20
2023-05-23T08:06:31.861Z,19.30
2023-05-23T08:08:58.396Z,19.30
2023-05-23T08:14:08.763Z,19.20
2023-05-23T08:16:35.340Z,19.20
2023-05-23T08:19:01.990Z,19.30
2023-05-23T08:21:28.583Z,19.10
2023-05-23T08:23:55.120Z,19.00
2023-05-23T08:26:21.673Z,19.10
2023-05-23T08:28:48.197Z,19.10
2023-05-23T08:31:14.780Z,19.10
2023-05-23T08:33:41.303Z,19.20
2023-05-23T08:36:07.861Z,19.20
2023-05-23T08:38:34.391Z,19.30
2023-05-23T08:41:00.935Z,19.20
2023-05-23T08:43:27.476Z,19.30
2023-05-23T08:45:54.152Z,19.40
2023-05-23T08:48:20.697Z,19.30
2023-05-23T08:50:47.240Z,19.20
2023-05-23T08:53:13.759Z,19.20
2023-05-23T08:55:40.577Z,19.20
2023-05-23T08:58:07.295Z,19.10
2023-05-23T09:00:33.813Z,19.20
2023-05-23T09:03:00.361Z,19.20
2023-05-23T09:05:27.023Z,19.20
2023-05-23T09:07:53.590Z,19.20
2023-05-23T09:10:20.119Z,19.20
2023-05-23T09:12:46.630Z,19.20
2023-05-23T09:15:13.155Z,19.10
2023-05-23T09:17:39.730Z,19.20
2023-05-23T09:20:06.280Z,19.10
2023-05-23T09:22:32.804Z,19.20
2023-05-23T09:24:59.336Z,19.10
2023-05-23T09:27:25.877Z,19.10
2023-05-23T09:29:52.402Z,19.20
2023-05-23T09:32:18.935Z,19.20
2023-05-23T09:34:45.453Z,19.20
2023-05-23T09:37:11.971Z,19.10
2023-05-23T09:39:38.551Z,19.10
2023-05-23T09:42:05.101Z,19.10
2023-05-23T09:44:31.619Z,19.10
2023-05-23T09:46:58.195Z,19.10
2023-05-23T09:49:24.843Z,19.10
2023-05-23T09:51:51.376Z,19.10
2023-05-23T09:54:17.881Z,19.10
2023-05-23T09:56:44.397Z,19.10
2023-05-23T09:59:10.923Z,19.20
2023-05-23T10:01:37.462Z,19.20
2023-05-23T10:04:04.187Z,19.20
2023-05-23T10:06:30.767Z,19.30
2023-05-23T10:08:57.281Z,19.30
2023-05-23T10:11:23.935Z,19.20
2023-05-23T10:13:50.472Z,19.20
2023-05-23T10:16:17.099Z,19.10
2023-05-23T10:18:43.641Z,19.20
2023-05-23T10:21:10.179Z,19.30
2023-05-23T10:23:36.822Z,19.30
2023-05-23T10:26:03.337Z,19.30
2023-05-23T10:28:29.850Z,19.20
2023-05-23T10:30:56.367Z,19.20
2023-05-23T10:33:22.912Z,19.20
2023-05-23T10:35:50.590Z,19.30
2023-05-23T10:38:17.150Z,19.20
2023-05-23T10:40:43.820Z,19.20
2023-05-23T10:43:10.437Z,19.20
2023-05-23T10:45:37.014Z,19.10
2023-05-23T10:48:03.639Z,19.10
2023-05-23T10:50:30.205Z,19.10
2023-05-23T10:52:56.720Z,19.10
2023-05-23T10:55:23.245Z,19.10
2023-05-23T10:57:50.993Z,19.20
2023-05-23T11:00:17.658Z,19.10
2023-05-23T11:02:44.224Z,19.10
2023-05-23T11:05:10.822Z,19.00
2023-05-23T11:07:37.335Z,19.00
2023-05-23T11:10:03.869Z,19.10
2023-05-23T11:12:30.388Z,19.20
2023-05-23T11:14:56.885Z,19.20
2023-05-23T11:17:27.930Z,19.20
2023-05-23T11:19:54.469Z,19.30
2023-05-23T11:22:20.988Z,19.30
2023-05-23T11:24:47.506Z,19.20
2023-05-23T11:27:14.014Z,19.20
2023-05-23T11:29:40.614Z,19.20
2023-05-23T11:32:08.170Z,19.20
2023-05-23T11:34:37.090Z,19.30
2023-05-23T11:37:03.580Z,19.20
2023-05-23T11:39:30.107Z,19.10
2023-05-23T11:41:57.852Z,19.20
2023-05-23T11:44:24.389Z,19.20
2023-05-23T11:46:50.914Z,19.20
2023-05-23T11:49:17.457Z,19.20
2023-05-23T11:51:43.960Z,19.30
2023-05-23T11:54:10.751Z,19.20
2023-05-23T11:56:37.275Z,19.20
2023-05-23T11:59:03.796Z,19.20
2023-05-23T12:01:30.317Z,19.30
2023-05-23T12:03:58.013Z,19.30
2023-05-23T12:06:24.655Z,19.30
2023-05-23T12:08:51.205Z,19.20
2023-05-23T12:11:18.739Z,19.20
2023-05-23T12:13:45.472Z,19.20
2023-05-23T12:16:12.039Z,19.20
2023-05-23T12:18:38.724Z,19.30
2023-05-23T12:21:05.565Z,19.20
2023-05-23T12:23:34.714Z,19.10
2023-05-23T12:26:01.623Z,19.20
2023-05-23T12:28:28.156Z,19.20
2023-05-23T12:30:54.690Z,19.20
2023-05-23T12:33:21.293Z,19.10
2023-05-23T12:35:47.846Z,19.20
2023-05-23T12:38:14.405Z,19.20
2023-05-23T12:40:40.968Z,19.20
2023-05-23T12:43:07.502Z,19.30
2023-05-23T12:45:34.099Z,19.30
2023-05-23T12:48:00.683Z,19.30
2023-05-23T12:50:27.206Z,19.30
2023-05-23T12:52:53.738Z,19.20
2023-05-23T12:55:20.239Z,19.20
2023-05-23T12:57:46.761Z,19.20
2023-05-23T13:00:13.304Z,19.30
2023-05-23T13:02:39.943Z,19.30
2023-05-23T13:05:06.600Z,19.30
2023-05-23T13:07:33.128Z,19.30
2023-05-23T13:09:59.691Z,19.30
2023-05-23T13:12:26.239Z,19.30
2023-05-23T13:14:52.814Z,19.30
2023-05-23T13:17:19.353Z,19.40
2023-05-23T13:19:45.922Z,19.40
2023-05-23T13:22:12.453Z,19.30
2023-05-23T13:24:38.978Z,19.30
2023-05-23T13:27:05.496Z,19.20
2023-05-23T13:29:32.047Z,19.30
2023-05-23T13:31:58.557Z,19.30
2023-05-23T13:34:25.087Z,19.40
2023-05-23T13:36:51.595Z,19.40
2023-05-23T13:39:19.829Z,19.40
2023-05-23T13:41:46.512Z,19.40
2023-05-23T13:44:13.027Z,19.30
2023-05-23T13:46:39.559Z,19.40
2023-05-23T13:49:06.090Z,19.40
2023-05-23T13:51:32.653Z,19.40
2023-05-23T13:53:59.184Z,19.40
2023-05-23T13:56:25.731Z,19.40
2023-05-23T13:58:52.264Z,19.40
2023-05-23T14:01:18.876Z,19.40
2023-05-23T14:03:45.440Z,19.40
2023-05-23T14:06:11.985Z,19.40
2023-05-23T14:08:38.513Z,19.50
2023-05-23T14:11:05.063Z,19.40
2023-05-23T14:13:31.587Z,19.40
2023-05-23T14:15:58.160Z,19.40
2023-05-23T14:18:24.712Z,19.50
2023-05-23T14:20:51.246Z,19.50
2023-05-23T14:23:17.786Z,19.50
2023-05-23T14:25:44.608Z,19.50
2023-05-23T14:28:16.216Z,19.50
2023-05-23T14:30:43.223Z,19.50
2023-05-23T14:33:11.277Z,19.50
2023-05-23T14:35:37.984Z,19.50
2023-05-23T14:38:04.481Z,19.50
2023-05-23T14:40:31.021Z,19.60
2023-05-23T14:42:57.549Z,19.60
2023-05-23T14:45:24.056Z,19.60
2023-05-23T14:47:50.609Z,19.60
2023-05-23T14:50:17.204Z,19.50
2023-05-23T14:52:43.747Z,19.50
2023-05-23T14:55:10.277Z,19.50
2023-05-23T14:57:36.798Z,19.50
2023-05-23T15:00:03.337Z,19.60
2023-05-23T15:02:29.876Z,19.60
2023-05-23T15:04:56.472Z,19.70
2023-05-23T15:07:23.044Z,19.60
2023-05-23T15:09:49.564Z,19.60
2023-05-23T15:12:16.089Z,19.60
2023-05-23T15:14:42.614Z,19.60
2023-05-23T15:17:09.154Z,19.70
2023-05-23T15:19:35.783Z,19.70
2023-05-23T15:22:02.431Z,19.70
2023-05-23T15:24:28.986Z,19.70
2023-05-23T15:26:56.829Z,19.70
2023-05-23T15:29:26.663Z,19.70
2023-05-23T15:31:53.210Z,19.60
2023-05-23T15:34:19.838Z,19.60
2023-05-23T15:36:46.365Z,19.60
2023-05-23T15:39:12.897Z,19.70
2023-05-23T15:41:39.418Z,19.70
2023-05-23T15:44:05.982Z,19.70
2023-05-23T15:46:32.561Z,19.70
2023-05-23T15:49:00.300Z,19.70
2023-05-23T15:51:31.470Z,19.70
2023-05-23T15:54:01.122Z,19.70
2023-05-23T15:56:28.178Z,19.70
2023-05-23T15:58:54.710Z,19.70
2023-05-23T16:01:21.285Z,19.70
2023-05-23T16:03:47.918Z,19.70
2023-05-23T16:06:14.502Z,19.70
2023-05-23T16:08:41.045Z,19.70
2023-05-23T16:11:07.563Z,19.60
2023-05-23T16:13:34.100Z,19.60
2023-05-23T16:16:00.644Z,19.70
2023-05-23T16:18:27.271Z,19.70
2023-05-23T16:20:53.830Z,19.60
2023-05-23T16:23:20.374Z,19.70
2023-05-23T16:25:46.893Z,19.60
2023-05-23T16:28:13.451Z,19.60
2023-05-23T16:30:39.979Z,19.60
2023-05-23T16:33:06.539Z,19.70
2023-05-23T16:35:33.100Z,19.70
2023-05-23T16:37:59.622Z,19.70
2023-05-23T16:40:26.330Z,19.70
2023-05-23T16:42:52.872Z,19.70
2023-05-23T16:45:19.403Z,19.70
2023-05-23T16:47:45.951Z,19.70
2023-05-23T16:50:16.235Z,19.70
2023-05-23T16:52:42.751Z,19.70
2023-05-23T16:55:09.275Z,19.70
2023-05-23T16:57:35.883Z,19.70
2023-05-23T17:00:02.406Z,19.70
2023-05-23T17:02:29.047Z,19.70
2023-05-23T17:04:55.604Z,19.80
2023-05-23T17:07:22.110Z,19.80
2023-05-23T17:09:52.212Z,19.80
2023-05-23T17:12:18.738Z,19.80
2023-05-23T17:14:45.254Z,19.80
2023-05-23T17:17:11.770Z,19.80
2023-05-23T17:19:38.337Z,19.80
2023-05-23T17:22:07.407Z,19.80
2023-05-23T17:24:34.365Z,19.80
2023-05-23T17:27:00.884Z,19.80
2023-05-23T17:29:27.460Z,19.80
2023-05-23T17:31:53.991Z,19.80
2023-05-23T17:34:20.529Z,19.80
2023-05-23T17:36:47.032Z,19.80
2023-05-23T17:39:13.567Z,19.70
2023-05-23T17:41:40.083Z,19.70
2023-05-23T17:44:06.590Z,19.70
2023-05-23T17:46:33.142Z,19.80
2023-05-23T17:48:59.682Z,19.80
2023-05-23T17:51:26.200Z,19.70
2023-05-23T17:53:52.740Z,19.70
2023-05-23T17:56:19.253Z,19.70
2023-05-23T17:58:45.786Z,19.70
2023-05-23T18:01:12.373Z,19.70
2023-05-23T18:03:38.940Z,19.70
2023-05-23T18:06:05.477Z,19.70
2023-05-23T18:08:31.995Z,19.70
2023-05-23T18:10:58.504Z,19.70
2023-05-23T18:13:25.025Z,19.70
2023-05-23T18:15:51.571Z,19.60
2023-05-23T18:18:18.281Z,19.70
2023-05-23T18:20:44.931Z,19.60
2023-05-23T18:23:11.618Z,19.60
2023-05-23T18:25:38.157Z,19.60
2023-05-23T18:28:04.700Z,19.60
2023-05-23T18:30:31.205Z,19.60
2023-05-23T18:32:57.752Z,19.50
2023-05-23T18:35:24.370Z,19.50
2023-05-23T18:37:50.893Z,19.50
2023-05-23T18:40:17.443Z,19.50
2023-05-23T18:42:43.991Z,19.50
2023-05-23T18:45:10.574Z,19.50
2023-05-23T18:47:37.156Z,19.50
2023-05-23T18:50:03.797Z,19.50
2023-05-23T18:52:30.293Z,19.50
2023-05-23T18:54:56.825Z,19.50
2023-05-23T18:57:23.325Z,19.50
2023-05-23T18:59:49.878Z,19.60
2023-05-23T19:02:16.533Z,19.60
2023-05-23T19:04:43.132Z,19.60
2023-05-23T19:07:09.653Z,19.60
2023-05-23T19:09:36.183Z,19.60
2023-05-23T19:12:02.709Z,19.60
2023-05-23T19:14:29.260Z,19.50
2023-05-23T19:16:55.824Z,19.50
2023-05-23T19:19:22.399Z,19.50
2023-05-23T19:21:48.950Z,19.50
2023-05-23T19:24:15.478Z,19.50
2023-05-23T19:26:42.003Z,19.50
2023-05-23T19:29:08.527Z,19.50
2023-05-23T19:31:35.060Z,19.50
2023-05-23T19:34:01.591Z,19.50
2023-05-23T19:36:28.091Z,19.50
2023-05-23T19:38:54.616Z,19.50
2023-05-23T19:41:21.135Z,19.50
2023-05-23T19:43:47.692Z,19.50
2023-05-23T19:46:14.457Z,19.50
2023-05-23T19:48:41.046Z,19.50
2023-05-23T19:51:07.595Z,19.40
2023-05-23T19:53:34.133Z,19.40
2023-05-23T19:56:00.641Z,19.40
2023-05-23T19:58:27.186Z,19.40
2023-05-23T20:00:53.702Z,19.30
2023-05-23T20:03:20.295Z,19.30
2023-05-23T20:05:46.868Z,19.30
2023-05-23T20:08:13.433Z,19.40
2023-05-23T20:10:40.219Z,19.40
2023-05-23T20:13:06.995Z,19.30
2023-05-23T20:15:39.877Z,19.30
2023-05-23T20:18:07.244Z,19.30
2023-05-23T20:20:33.834Z,19.30
2023-05-23T20:23:00.357Z,19.30
2023-05-23T20:25:26.887Z,19.30
2023-05-23T20:27:53.428Z,19.30
2023-05-23T20:30:19.942Z,19.30
2023-05-23T20:32:46.445Z,19.30
2023-05-23T20:35:12.983Z,19.30
2023-05-23T20:37:39.506Z,19.20
2023-05-23T20:40:06.025Z,19.20
2023-05-23T20:42:32.534Z,19.20
2023-05-23T20:44:59.051Z,19.30
2023-05-23T20:47:25.674Z,19.20
2023-05-23T20:49:52.284Z,19.20
2023-05-23T20:52:18.797Z,19.20
2023-05-23T20:54:45.312Z,19.20
2023-05-23T20:57:11.858Z,19.20
2023-05-23T20:59:40.356Z,19.20
2023-05-23T21:02:06.930Z,19.20
2023-05-23T21:04:33.476Z,19.20
2023-05-23T21:07:00.005Z,19.20
2023-05-23T21:09:26.522Z,19.10
2023-05-23T21:11:53.065Z,19.10
2023-05-23T21:14:19.609Z,19.10
2023-05-23T21:16:46.181Z,19.10
2023-05-23T21:19:12.794Z,19.10
2023-05-23T21:21:39.397Z,19.20
2023-05-23T21:24:05.886Z,19.10
2023-05-23T21:26:32.412Z,19.10
2023-05-23T21:28:58.919Z,19.10
2023-05-23T21:31:37.150Z,19.10
2023-05-23T21:34:21.565Z,19.10
2023-05-23T21:36:49.520Z,19.00
2023-05-23T21:39:16.043Z,19.10
2023-05-23T21:41:42.600Z,19.00
2023-05-23T21:44:09.179Z,19.10
2023-05-23T21:46:35.751Z,19.00
2023-05-23T21:49:02.293Z,19.00
2023-05-23T21:51:28.805Z,19.00
2023-05-23T21:53:55.349Z,19.00
2023-05-23T21:56:21.865Z,19.00
2023-05-23T21:58:48.441Z,19.00
2023-05-23T22:01:15.033Z,19.00
2023-05-23T22:03:41.681Z,19.00
2023-05-23T22:06:08.315Z,19.00
2023-05-23T22:08:34.830Z,19.00
2023-05-23T22:11:01.340Z,19.00
2023-05-23T22:13:27.872Z,19.00
2023-05-23T22:15:54.399Z,19.00
2023-05-23T22:18:20.926Z,18.90
2023-05-23T22:20:47.440Z,19.00
2023-05-23T22:23:13.943Z,18.90
2023-05-23T22:25:40.431Z,18.90
2023-05-23T22:28:06.933Z,18.90
2023-05-23T22:30:33.452Z,18.90
2023-05-23T22:32:59.973Z,18.80
2023-05-23T22:35:26.538Z,18.90
2023-05-23T22:37:53.075Z,18.90
2023-05-23T22:40:19.612Z,18.90
2023-05-23T22:42:46.134Z,18.90
2023-05-23T22:45:12.639Z,18.90
2023-05-23T22:47:39.208Z,18.90
2023-05-23T22:50:05.772Z,18.90
2023-05-23T22:52:32.300Z,18.80
2023-05-23T22:54:58.833Z,18.80
2023-05-23T22:57:25.360Z,18.80
2023-05-23T22:59:51.900Z,18.80
2023-05-23T23:02:18.422Z,18.80
2023-05-23T23:04:44.987Z,18.80
2023-05-23T23:07:11.508Z,18.70
2023-05-23T23:09:38.042Z,18.80
2023-05-23T23:12:04.581Z,18.80
2023-05-23T23:14:31.109Z,18.80
2023-05-23T23:16:57.692Z,18.70
2023-05-23T23:19:24.304Z,18.80
2023-05-23T23:21:50.825Z,18.70
2023-05-23T23:24:17.344Z,18.70
2023-05-23T23:26:43.870Z,18.70
2023-05-23T23:29:10.437Z,18.80
2023-05-23T23:31:37.003Z,18.70
2023-05-23T23:34:03.543Z,18.70
2023-05-23T23:36:34.609Z,18.70
2023-05-23T23:39:01.135Z,18.70
2023-05-23T23:41:27.682Z,18.70
2023-05-23T23:43:54.184Z,18.70
2023-05-23T23:46:20.777Z,18.70
2023-05-23T23:48:47.414Z,18.70
2023-05-23T23:51:13.972Z,18.60
2023-05-23T23:53:40.486Z,18.70
2023-05-23T23:56:07.030Z,18.70
2023-05-23T23:58:33.598Z,18.70
